sensor_id;sensor_type;location;lat;lon;timestamp;pressure;altitude;pressure_sealevel;temperature;humidity
36328;BME280;22354;50.012;8.264;2022-09-16T00:01:20;100095.56;;;15.34;100.00
36328;BME280;22354;50.012;8.264;2022-09-16T00:03:45;100084.75;;;15.34;100.00
36328;BME280;22354;50.012;8.264;2022-09-16T00:06:21;100091.91;;;15.42;100.00
36328;BME280;22354;50.012;8.264;2022-09-16T00:08:47;100085.94;;;15.46;100.00
36328;BME280;22354;50.012;8.264;2022-09-16T00:11:13;100086.38;;;15.28;100.00
36328;BME280;22354;50.012;8.264;2022-09-16T00:13:39;100079.97;;;15.29;100.00
36328;BME280;22354;50.012;8.264;2022-09-16T00:16:15;100075.00;;;15.33;100.00
36328;BME280;22354;50.012;8.264;2022-09-16T00:18:41;100082.13;;;15.19;100.00
36328;BME280;22354;50.012;8.264;2022-09-16T00:21:08;100084.84;;;15.19;100.00
36328;BME280;22354;50.012;8.264;2022-09-16T00:23:35;100081.94;;;15.21;100.00
36328;BME280;22354;50.012;8.264;2022-09-16T00:26:00;100083.09;;;15.33;100.00
36328;BME280;22354;50.012;8.264;2022-09-16T00:28:26;100086.78;;;15.25;100.00
36328;BME280;22354;50.012;8.264;2022-09-16T00:30:51;100083.56;;;15.15;100.00
36328;BME280;22354;50.012;8.264;2022-09-16T00:33:18;100083.69;;;15.28;100.00
36328;BME280;22354;50.012;8.264;2022-09-16T00:35:43;100076.34;;;15.01;100.00
36328;BME280;22354;50.012;8.264;2022-09-16T00:38:08;100072.81;;;15.00;100.00
36328;BME280;22354;50.012;8.264;2022-09-16T00:40:34;100081.25;;;15.12;100.00
36328;BME280;22354;50.012;8.264;2022-09-16T00:43:01;100082.38;;;15.03;100.00
36328;BME280;22354;50.012;8.264;2022-09-16T00:45:26;100080.91;;;15.00;100.00
36328;BME280;22354;50.012;8.264;2022-09-16T00:48:01;100089.63;;;15.02;100.00
36328;BME280;22354;50.012;8.264;2022-09-16T00:50:34;100078.22;;;15.00;100.00
36328;BME280;22354;50.012;8.264;2022-09-16T00:53:02;100075.63;;;14.92;100.00
36328;BME280;22354;50.012;8.264;2022-09-16T00:55:33;100081.34;;;15.04;100.00
36328;BME280;22354;50.012;8.264;2022-09-16T00:58:05;100078.59;;;14.97;100.00
36328;BME280;22354;50.012;8.264;2022-09-16T01:00:34;100080.81;;;14.94;100.00
36328;BME280;22354;50.012;8.264;2022-09-16T01:03:02;100076.16;;;15.02;100.00
36328;BME280;22354;50.012;8.264;2022-09-16T01:05:28;100079.53;;;14.90;100.00
36328;BME280;22354;50.012;8.264;2022-09-16T01:07:53;100077.72;;;14.97;100.00
36328;BME280;22354;50.012;8.264;2022-09-16T01:10:22;100087.53;;;14.98;100.00
36328;BME280;22354;50.012;8.264;2022-09-16T01:12:54;100085.66;;;14.84;100.00
36328;BME280;22354;50.012;8.264;2022-09-16T01:16:15;100082.53;;;14.80;100.00
36328;BME280;22354;50.012;8.264;2022-09-16T01:18:35;100087.38;;;15.06;100.00
36328;BME280;22354;50.012;8.264;2022-09-16T01:24:04;100086.69;;;14.83;100.00
36328;BME280;22354;50.012;8.264;2022-09-16T01:26:43;100084.28;;;14.88;100.00
36328;BME280;22354;50.012;8.264;2022-09-16T01:32:09;100069.00;;;14.95;100.00
36328;BME280;22354;50.012;8.264;2022-09-16T01:40:32;100093.75;;;14.84;100.00
36328;BME280;22354;50.012;8.264;2022-09-16T01:43:02;100093.69;;;14.77;100.00
36328;BME280;22354;50.012;8.264;2022-09-16T01:45:39;100092.09;;;14.83;100.00
36328;BME280;22354;50.012;8.264;2022-09-16T01:48:11;100093.41;;;14.87;100.00
36328;BME280;22354;50.012;8.264;2022-09-16T01:50:47;100097.31;;;14.69;100.00
36328;BME280;22354;50.012;8.264;2022-09-16T01:53:18;100095.78;;;14.60;100.00
36328;BME280;22354;50.012;8.264;2022-09-16T01:58:24;100100.22;;;15.04;100.00
36328;BME280;22354;50.012;8.264;2022-09-16T02:00:52;100099.38;;;14.67;100.00
36328;BME280;22354;50.012;8.264;2022-09-16T02:03:27;100095.31;;;14.71;100.00
36328;BME280;22354;50.012;8.264;2022-09-16T02:06:01;100094.59;;;14.84;100.00
36328;BME280;22354;50.012;8.264;2022-09-16T02:11:16;100097.00;;;14.94;100.00
36328;BME280;22354;50.012;8.264;2022-09-16T02:13:51;100089.97;;;14.78;100.00
36328;BME280;22354;50.012;8.264;2022-09-16T02:19:03;100092.31;;;14.66;100.00
36328;BME280;22354;50.012;8.264;2022-09-16T02:21:32;100084.03;;;14.68;100.00
36328;BME280;22354;50.012;8.264;2022-09-16T02:24:02;100073.19;;;14.61;100.00
36328;BME280;22354;50.012;8.264;2022-09-16T02:26:35;100075.84;;;14.76;100.00
36328;BME280;22354;50.012;8.264;2022-09-16T02:29:08;100082.28;;;14.75;100.00
36328;BME280;22354;50.012;8.264;2022-09-16T02:31:36;100080.50;;;14.67;100.00
36328;BME280;22354;50.012;8.264;2022-09-16T02:34:10;100080.22;;;14.77;100.00
36328;BME280;22354;50.012;8.264;2022-09-16T02:36:39;100082.84;;;14.56;100.00
36328;BME280;22354;50.012;8.264;2022-09-16T02:39:10;100080.06;;;14.64;100.00
36328;BME280;22354;50.012;8.264;2022-09-16T02:41:39;100083.38;;;14.66;100.00
36328;BME280;22354;50.012;8.264;2022-09-16T02:44:06;100090.66;;;14.65;100.00
36328;BME280;22354;50.012;8.264;2022-09-16T02:46:56;100079.19;;;14.78;100.00
36328;BME280;22354;50.012;8.264;2022-09-16T02:55:18;100078.75;;;14.74;100.00
36328;BME280;22354;50.012;8.264;2022-09-16T02:57:45;100092.03;;;14.76;100.00
36328;BME280;22354;50.012;8.264;2022-09-16T03:00:11;100084.41;;;14.65;100.00
36328;BME280;22354;50.012;8.264;2022-09-16T03:02:36;100092.41;;;14.58;100.00
36328;BME280;22354;50.012;8.264;2022-09-16T03:05:02;100087.31;;;14.34;100.00
36328;BME280;22354;50.012;8.264;2022-09-16T03:07:28;100094.38;;;14.35;100.00
36328;BME280;22354;50.012;8.264;2022-09-16T03:09:54;100091.03;;;14.33;100.00
36328;BME280;22354;50.012;8.264;2022-09-16T03:15:51;100088.13;;;14.34;100.00
36328;BME280;22354;50.012;8.264;2022-09-16T03:18:33;100084.81;;;14.32;100.00
36328;BME280;22354;50.012;8.264;2022-09-16T03:21:34;100082.09;;;14.32;100.00
36328;BME280;22354;50.012;8.264;2022-09-16T03:24:12;100076.22;;;14.29;100.00
36328;BME280;22354;50.012;8.264;2022-09-16T03:26:45;100075.13;;;14.38;100.00
36328;BME280;22354;50.012;8.264;2022-09-16T03:29:22;100073.91;;;14.40;100.00
36328;BME280;22354;50.012;8.264;2022-09-16T03:34:49;100060.34;;;14.34;100.00
36328;BME280;22354;50.012;8.264;2022-09-16T03:37:17;100066.59;;;14.34;100.00
36328;BME280;22354;50.012;8.264;2022-09-16T03:39:48;100064.22;;;14.31;100.00
36328;BME280;22354;50.012;8.264;2022-09-16T03:42:16;100062.56;;;14.15;100.00
36328;BME280;22354;50.012;8.264;2022-09-16T03:44:42;100061.28;;;14.11;100.00
36328;BME280;22354;50.012;8.264;2022-09-16T03:47:07;100056.66;;;14.20;100.00
36328;BME280;22354;50.012;8.264;2022-09-16T03:49:34;100047.91;;;14.33;100.00
36328;BME280;22354;50.012;8.264;2022-09-16T03:51:59;100047.16;;;14.39;100.00
36328;BME280;22354;50.012;8.264;2022-09-16T03:54:26;100045.84;;;14.35;100.00
36328;BME280;22354;50.012;8.264;2022-09-16T03:56:51;100048.06;;;14.16;100.00
36328;BME280;22354;50.012;8.264;2022-09-16T03:59:17;100041.78;;;14.09;100.00
36328;BME280;22354;50.012;8.264;2022-09-16T04:01:43;100045.75;;;14.13;100.00
36328;BME280;22354;50.012;8.264;2022-09-16T04:04:09;100047.41;;;14.29;100.00
36328;BME280;22354;50.012;8.264;2022-09-16T04:06:34;100048.00;;;14.25;100.00
36328;BME280;22354;50.012;8.264;2022-09-16T04:09:04;100041.19;;;14.29;100.00
36328;BME280;22354;50.012;8.264;2022-09-16T04:11:31;100048.56;;;14.35;100.00
36328;BME280;22354;50.012;8.264;2022-09-16T04:13:57;100045.47;;;14.38;100.00
36328;BME280;22354;50.012;8.264;2022-09-16T04:16:24;100038.81;;;14.34;100.00
36328;BME280;22354;50.012;8.264;2022-09-16T04:18:49;100044.28;;;14.11;100.00
36328;BME280;22354;50.012;8.264;2022-09-16T04:21:15;100046.34;;;14.09;100.00
36328;BME280;22354;50.012;8.264;2022-09-16T04:23:41;100041.78;;;14.09;100.00
36328;BME280;22354;50.012;8.264;2022-09-16T04:26:06;100034.91;;;14.22;100.00
36328;BME280;22354;50.012;8.264;2022-09-16T04:28:32;100029.34;;;14.08;100.00
36328;BME280;22354;50.012;8.264;2022-09-16T04:31:00;100030.16;;;13.94;100.00
36328;BME280;22354;50.012;8.264;2022-09-16T04:33:31;100024.47;;;13.89;100.00
36328;BME280;22354;50.012;8.264;2022-09-16T04:36:11;100025.78;;;13.93;100.00
36328;BME280;22354;50.012;8.264;2022-09-16T04:38:37;100025.13;;;13.91;100.00
36328;BME280;22354;50.012;8.264;2022-09-16T04:41:10;100026.16;;;13.90;100.00
36328;BME280;22354;50.012;8.264;2022-09-16T04:43:36;100038.13;;;13.87;100.00
36328;BME280;22354;50.012;8.264;2022-09-16T04:46:02;100022.25;;;13.78;100.00
36328;BME280;22354;50.012;8.264;2022-09-16T04:48:28;100022.63;;;13.75;100.00
36328;BME280;22354;50.012;8.264;2022-09-16T04:51:01;100023.91;;;13.79;100.00
36328;BME280;22354;50.012;8.264;2022-09-16T04:53:26;100024.66;;;13.73;100.00
36328;BME280;22354;50.012;8.264;2022-09-16T04:55:52;100030.97;;;13.80;100.00
36328;BME280;22354;50.012;8.264;2022-09-16T04:58:17;100024.94;;;13.93;100.00
36328;BME280;22354;50.012;8.264;2022-09-16T05:00:42;100031.72;;;14.03;100.00
36328;BME280;22354;50.012;8.264;2022-09-16T05:03:07;100037.31;;;14.02;100.00
36328;BME280;22354;50.012;8.264;2022-09-16T05:05:33;100037.03;;;13.97;100.00
36328;BME280;22354;50.012;8.264;2022-09-16T05:07:58;100038.97;;;13.88;100.00
36328;BME280;22354;50.012;8.264;2022-09-16T05:10:23;100031.28;;;14.00;100.00
36328;BME280;22354;50.012;8.264;2022-09-16T05:12:52;100037.94;;;14.18;100.00
36328;BME280;22354;50.012;8.264;2022-09-16T05:15:18;100043.16;;;13.91;100.00
36328;BME280;22354;50.012;8.264;2022-09-16T05:17:44;100037.13;;;13.88;100.00
36328;BME280;22354;50.012;8.264;2022-09-16T05:20:10;100041.38;;;13.83;100.00
36328;BME280;22354;50.012;8.264;2022-09-16T05:22:35;100042.63;;;13.95;100.00
36328;BME280;22354;50.012;8.264;2022-09-16T05:25:01;100044.16;;;13.90;100.00
36328;BME280;22354;50.012;8.264;2022-09-16T05:27:29;100041.59;;;13.96;100.00
36328;BME280;22354;50.012;8.264;2022-09-16T05:29:55;100044.28;;;13.96;100.00
36328;BME280;22354;50.012;8.264;2022-09-16T05:32:20;100044.56;;;14.01;100.00
36328;BME280;22354;50.012;8.264;2022-09-16T05:34:46;100045.09;;;13.82;100.00
36328;BME280;22354;50.012;8.264;2022-09-16T05:37:11;100040.19;;;13.85;100.00
36328;BME280;22354;50.012;8.264;2022-09-16T05:39:36;100046.41;;;13.86;100.00
36328;BME280;22354;50.012;8.264;2022-09-16T05:42:01;100046.97;;;13.96;100.00
36328;BME280;22354;50.012;8.264;2022-09-16T05:44:28;100052.34;;;13.96;100.00
36328;BME280;22354;50.012;8.264;2022-09-16T05:46:54;100039.53;;;13.98;100.00
36328;BME280;22354;50.012;8.264;2022-09-16T05:49:20;100046.97;;;14.11;100.00
36328;BME280;22354;50.012;8.264;2022-09-16T05:51:46;100045.31;;;14.25;100.00
36328;BME280;22354;50.012;8.264;2022-09-16T05:54:12;100051.91;;;14.07;100.00
36328;BME280;22354;50.012;8.264;2022-09-16T05:56:38;100049.47;;;14.12;100.00
36328;BME280;22354;50.012;8.264;2022-09-16T05:59:04;100045.31;;;14.25;100.00
36328;BME280;22354;50.012;8.264;2022-09-16T06:01:31;100055.69;;;14.28;100.00
36328;BME280;22354;50.012;8.264;2022-09-16T06:03:59;100055.31;;;14.01;100.00
36328;BME280;22354;50.012;8.264;2022-09-16T06:06:27;100050.13;;;14.14;100.00
36328;BME280;22354;50.012;8.264;2022-09-16T06:08:56;100053.84;;;14.13;100.00
36328;BME280;22354;50.012;8.264;2022-09-16T06:11:22;100041.47;;;14.04;100.00
36328;BME280;22354;50.012;8.264;2022-09-16T06:13:53;100047.88;;;14.03;100.00
36328;BME280;22354;50.012;8.264;2022-09-16T06:16:20;100050.31;;;13.98;100.00
36328;BME280;22354;50.012;8.264;2022-09-16T06:18:45;100046.22;;;14.02;100.00
36328;BME280;22354;50.012;8.264;2022-09-16T06:21:11;100047.44;;;14.14;100.00
36328;BME280;22354;50.012;8.264;2022-09-16T06:23:37;100052.56;;;14.09;100.00
36328;BME280;22354;50.012;8.264;2022-09-16T06:26:05;100049.66;;;14.26;100.00
36328;BME280;22354;50.012;8.264;2022-09-16T06:28:31;100051.13;;;14.43;100.00
36328;BME280;22354;50.012;8.264;2022-09-16T06:31:24;100050.22;;;14.51;100.00
36328;BME280;22354;50.012;8.264;2022-09-16T06:33:51;100051.31;;;14.56;100.00
36328;BME280;22354;50.012;8.264;2022-09-16T06:36:19;100047.16;;;14.54;100.00
36328;BME280;22354;50.012;8.264;2022-09-16T06:38:46;100045.84;;;14.64;100.00
36328;BME280;22354;50.012;8.264;2022-09-16T06:41:13;100048.09;;;14.61;100.00
36328;BME280;22354;50.012;8.264;2022-09-16T06:43:39;100050.81;;;14.82;100.00
36328;BME280;22354;50.012;8.264;2022-09-16T06:46:09;100062.38;;;14.76;100.00
36328;BME280;22354;50.012;8.264;2022-09-16T06:48:38;100059.97;;;14.66;100.00
36328;BME280;22354;50.012;8.264;2022-09-16T06:51:06;100050.88;;;14.53;100.00
36328;BME280;22354;50.012;8.264;2022-09-16T06:53:32;100053.34;;;14.69;100.00
36328;BME280;22354;50.012;8.264;2022-09-16T06:56:01;100060.25;;;14.57;100.00
36328;BME280;22354;50.012;8.264;2022-09-16T06:58:30;100064.06;;;14.33;100.00
36328;BME280;22354;50.012;8.264;2022-09-16T07:00:55;100057.69;;;14.49;100.00
36328;BME280;22354;50.012;8.264;2022-09-16T07:03:21;100061.91;;;14.58;100.00
36328;BME280;22354;50.012;8.264;2022-09-16T07:06:00;100062.94;;;14.57;100.00
36328;BME280;22354;50.012;8.264;2022-09-16T07:08:29;100060.06;;;14.73;100.00
36328;BME280;22354;50.012;8.264;2022-09-16T07:11:04;100065.53;;;14.65;100.00
36328;BME280;22354;50.012;8.264;2022-09-16T07:13:31;100063.19;;;14.77;100.00
36328;BME280;22354;50.012;8.264;2022-09-16T07:16:09;100058.97;;;14.89;100.00
36328;BME280;22354;50.012;8.264;2022-09-16T07:18:35;100082.56;;;15.01;100.00
36328;BME280;22354;50.012;8.264;2022-09-16T07:21:02;100074.34;;;14.88;100.00
36328;BME280;22354;50.012;8.264;2022-09-16T07:23:30;100071.09;;;15.14;100.00
36328;BME280;22354;50.012;8.264;2022-09-16T07:26:03;100073.94;;;14.91;100.00
36328;BME280;22354;50.012;8.264;2022-09-16T07:28:29;100076.44;;;14.93;100.00
36328;BME280;22354;50.012;8.264;2022-09-16T07:30:55;100075.00;;;15.12;100.00
36328;BME280;22354;50.012;8.264;2022-09-16T07:33:23;100076.53;;;15.21;100.00
36328;BME280;22354;50.012;8.264;2022-09-16T07:35:49;100074.38;;;15.31;100.00
36328;BME280;22354;50.012;8.264;2022-09-16T07:38:14;100078.03;;;15.45;100.00
36328;BME280;22354;50.012;8.264;2022-09-16T07:40:39;100086.34;;;15.92;100.00
36328;BME280;22354;50.012;8.264;2022-09-16T07:43:06;100085.38;;;15.51;100.00
36328;BME280;22354;50.012;8.264;2022-09-16T07:45:31;100088.81;;;15.23;100.00
36328;BME280;22354;50.012;8.264;2022-09-16T07:47:56;100092.16;;;15.47;100.00
36328;BME280;22354;50.012;8.264;2022-09-16T07:50:22;100091.00;;;15.34;100.00
36328;BME280;22354;50.012;8.264;2022-09-16T07:52:47;100086.63;;;15.55;100.00
36328;BME280;22354;50.012;8.264;2022-09-16T07:55:12;100086.19;;;15.73;100.00
36328;BME280;22354;50.012;8.264;2022-09-16T07:57:40;100093.03;;;15.69;100.00
36328;BME280;22354;50.012;8.264;2022-09-16T08:00:05;100088.06;;;15.72;100.00
36328;BME280;22354;50.012;8.264;2022-09-16T08:02:31;100093.06;;;15.75;100.00
36328;BME280;22354;50.012;8.264;2022-09-16T08:04:56;100091.06;;;15.84;100.00
36328;BME280;22354;50.012;8.264;2022-09-16T08:07:22;100094.41;;;15.43;100.00
36328;BME280;22354;50.012;8.264;2022-09-16T08:09:47;100089.09;;;15.50;100.00
36328;BME280;22354;50.012;8.264;2022-09-16T08:12:13;100093.84;;;15.69;100.00
36328;BME280;22354;50.012;8.264;2022-09-16T08:14:38;100088.56;;;15.82;100.00
36328;BME280;22354;50.012;8.264;2022-09-16T08:17:04;100094.34;;;15.79;100.00
36328;BME280;22354;50.012;8.264;2022-09-16T08:19:29;100093.97;;;15.82;100.00
36328;BME280;22354;50.012;8.264;2022-09-16T08:21:54;100093.56;;;15.85;100.00
36328;BME280;22354;50.012;8.264;2022-09-16T08:24:20;100100.25;;;15.89;100.00
36328;BME280;22354;50.012;8.264;2022-09-16T08:26:45;100092.78;;;15.91;100.00
36328;BME280;22354;50.012;8.264;2022-09-16T08:29:11;100091.78;;;15.99;100.00
36328;BME280;22354;50.012;8.264;2022-09-16T08:31:37;100097.25;;;16.06;100.00
36328;BME280;22354;50.012;8.264;2022-09-16T08:34:02;100097.41;;;15.98;100.00
36328;BME280;22354;50.012;8.264;2022-09-16T08:36:28;100098.53;;;16.44;100.00
36328;BME280;22354;50.012;8.264;2022-09-16T08:38:54;100099.13;;;16.68;100.00
36328;BME280;22354;50.012;8.264;2022-09-16T08:44:23;100099.03;;;16.55;100.00
36328;BME280;22354;50.012;8.264;2022-09-16T08:46:57;100095.72;;;16.66;100.00
36328;BME280;22354;50.012;8.264;2022-09-16T08:51:57;100106.19;;;16.69;100.00
36328;BME280;22354;50.012;8.264;2022-09-16T08:54:27;100105.50;;;17.08;100.00
36328;BME280;22354;50.012;8.264;2022-09-16T08:56:58;100107.09;;;16.89;100.00
36328;BME280;22354;50.012;8.264;2022-09-16T08:59:27;100105.38;;;16.75;100.00
36328;BME280;22354;50.012;8.264;2022-09-16T09:02:18;100099.81;;;16.48;100.00
36328;BME280;22354;50.012;8.264;2022-09-16T09:04:45;100097.63;;;17.26;100.00
36328;BME280;22354;50.012;8.264;2022-09-16T09:07:21;100099.53;;;17.32;100.00
36328;BME280;22354;50.012;8.264;2022-09-16T09:12:39;100095.38;;;17.36;100.00
36328;BME280;22354;50.012;8.264;2022-09-16T09:15:32;100091.31;;;16.93;100.00
36328;BME280;22354;50.012;8.264;2022-09-16T09:21:27;100094.88;;;16.59;100.00
36328;BME280;22354;50.012;8.264;2022-09-16T09:24:08;100098.81;;;16.56;100.00
36328;BME280;22354;50.012;8.264;2022-09-16T09:26:49;100096.06;;;16.49;100.00
36328;BME280;22354;50.012;8.264;2022-09-16T09:32:28;100102.34;;;17.04;100.00
36328;BME280;22354;50.012;8.264;2022-09-16T09:40:53;100087.16;;;17.03;100.00
36328;BME280;22354;50.012;8.264;2022-09-16T09:43:53;100093.06;;;17.20;100.00
36328;BME280;22354;50.012;8.264;2022-09-16T09:46:34;100096.97;;;16.63;100.00
36328;BME280;22354;50.012;8.264;2022-09-16T09:49:11;100093.63;;;16.55;100.00
36328;BME280;22354;50.012;8.264;2022-09-16T09:52:11;100099.78;;;16.14;100.00
36328;BME280;22354;50.012;8.264;2022-09-16T09:54:38;100093.94;;;16.04;100.00
36328;BME280;22354;50.012;8.264;2022-09-16T10:02:21;100081.91;;;16.13;100.00
36328;BME280;22354;50.012;8.264;2022-09-16T10:04:47;100079.25;;;16.19;100.00
36328;BME280;22354;50.012;8.264;2022-09-16T10:07:14;100079.28;;;16.26;100.00
36328;BME280;22354;50.012;8.264;2022-09-16T10:09:48;100088.63;;;16.58;100.00
36328;BME280;22354;50.012;8.264;2022-09-16T10:12:25;100091.59;;;16.29;100.00
36328;BME280;22354;50.012;8.264;2022-09-16T10:14:51;100085.53;;;16.27;100.00
36328;BME280;22354;50.012;8.264;2022-09-16T10:17:16;100079.53;;;16.31;100.00
36328;BME280;22354;50.012;8.264;2022-09-16T10:20:27;100083.78;;;16.12;100.00
36328;BME280;22354;50.012;8.264;2022-09-16T10:22:57;100084.25;;;16.22;100.00
36328;BME280;22354;50.012;8.264;2022-09-16T10:25:24;100083.31;;;16.37;100.00
36328;BME280;22354;50.012;8.264;2022-09-16T10:27:57;100086.91;;;16.50;100.00
36328;BME280;22354;50.012;8.264;2022-09-16T10:30:26;100088.28;;;16.68;100.00
36328;BME280;22354;50.012;8.264;2022-09-16T10:33:02;100079.06;;;16.56;100.00
36328;BME280;22354;50.012;8.264;2022-09-16T10:35:36;100078.31;;;16.75;100.00
36328;BME280;22354;50.012;8.264;2022-09-16T10:40:37;100074.28;;;16.58;100.00
36328;BME280;22354;50.012;8.264;2022-09-16T10:43:05;100077.19;;;16.56;100.00
36328;BME280;22354;50.012;8.264;2022-09-16T10:45:44;100073.13;;;16.73;100.00
36328;BME280;22354;50.012;8.264;2022-09-16T10:48:12;100071.31;;;16.94;100.00
36328;BME280;22354;50.012;8.264;2022-09-16T10:51:00;100067.28;;;16.70;100.00
36328;BME280;22354;50.012;8.264;2022-09-16T10:53:35;100062.13;;;16.82;100.00
36328;BME280;22354;50.012;8.264;2022-09-16T10:56:04;100062.75;;;16.90;100.00
36328;BME280;22354;50.012;8.264;2022-09-16T10:58:30;100061.09;;;16.89;100.00
36328;BME280;22354;50.012;8.264;2022-09-16T11:01:24;100058.75;;;16.73;100.00
36328;BME280;22354;50.012;8.264;2022-09-16T11:04:16;100069.50;;;16.60;100.00
36328;BME280;22354;50.012;8.264;2022-09-16T11:09:28;100066.50;;;16.89;100.00
36328;BME280;22354;50.012;8.264;2022-09-16T11:12:06;100064.59;;;16.70;100.00
36328;BME280;22354;50.012;8.264;2022-09-16T11:17:48;100070.56;;;17.26;100.00
36328;BME280;22354;50.012;8.264;2022-09-16T11:20:43;100067.75;;;16.87;100.00
36328;BME280;22354;50.012;8.264;2022-09-16T11:23:40;100068.03;;;17.12;100.00
36328;BME280;22354;50.012;8.264;2022-09-16T11:26:20;100069.53;;;17.40;100.00
36328;BME280;22354;50.012;8.264;2022-09-16T11:37:00;100068.06;;;17.25;100.00
36328;BME280;22354;50.012;8.264;2022-09-16T11:42:26;100077.13;;;16.91;100.00
36328;BME280;22354;50.012;8.264;2022-09-16T11:50:29;100093.28;;;16.36;100.00
36328;BME280;22354;50.012;8.264;2022-09-16T11:53:13;100095.50;;;16.26;100.00
36328;BME280;22354;50.012;8.264;2022-09-16T11:56:11;100086.19;;;16.01;100.00
36328;BME280;22354;50.012;8.264;2022-09-16T11:58:45;100087.72;;;15.82;100.00
36328;BME280;22354;50.012;8.264;2022-09-16T12:01:29;100085.28;;;16.15;100.00
36328;BME280;22354;50.012;8.264;2022-09-16T12:04:01;100073.00;;;17.01;100.00
36328;BME280;22354;50.012;8.264;2022-09-16T12:06:37;100068.50;;;18.08;100.00
36328;BME280;22354;50.012;8.264;2022-09-16T12:09:10;100072.00;;;18.41;100.00
36328;BME280;22354;50.012;8.264;2022-09-16T12:11:39;100065.22;;;17.73;100.00
36328;BME280;22354;50.012;8.264;2022-09-16T12:14:15;100066.22;;;17.65;100.00
36328;BME280;22354;50.012;8.264;2022-09-16T12:16:48;100055.16;;;17.20;100.00
36328;BME280;22354;50.012;8.264;2022-09-16T12:19:31;100059.16;;;17.77;100.00
36328;BME280;22354;50.012;8.264;2022-09-16T12:22:04;100050.16;;;17.37;100.00
36328;BME280;22354;50.012;8.264;2022-09-16T12:24:38;100051.22;;;17.49;100.00
36328;BME280;22354;50.012;8.264;2022-09-16T12:27:34;100053.94;;;17.62;100.00
36328;BME280;22354;50.012;8.264;2022-09-16T12:30:12;100052.28;;;17.81;100.00
36328;BME280;22354;50.012;8.264;2022-09-16T12:32:47;100058.22;;;18.43;100.00
36328;BME280;22354;50.012;8.264;2022-09-16T12:35:19;100054.91;;;18.21;100.00
36328;BME280;22354;50.012;8.264;2022-09-16T12:37:48;100047.91;;;17.74;100.00
36328;BME280;22354;50.012;8.264;2022-09-16T12:40:24;100054.34;;;17.33;100.00
36328;BME280;22354;50.012;8.264;2022-09-16T12:43:16;100041.38;;;18.27;100.00
36328;BME280;22354;50.012;8.264;2022-09-16T12:52:22;100028.97;;;19.59;100.00
36328;BME280;22354;50.012;8.264;2022-09-16T13:03:15;100028.47;;;18.10;100.00
36328;BME280;22354;50.012;8.264;2022-09-16T13:05:45;100026.41;;;17.92;100.00
36328;BME280;22354;50.012;8.264;2022-09-16T13:08:41;100024.56;;;17.46;100.00
36328;BME280;22354;50.012;8.264;2022-09-16T13:11:18;100031.03;;;17.72;100.00
36328;BME280;22354;50.012;8.264;2022-09-16T13:13:49;100036.84;;;17.35;100.00
36328;BME280;22354;50.012;8.264;2022-09-16T13:16:26;100027.88;;;17.61;100.00
36328;BME280;22354;50.012;8.264;2022-09-16T13:21:38;100048.50;;;17.56;100.00
36328;BME280;22354;50.012;8.264;2022-09-16T13:24:13;100045.09;;;16.94;100.00
36328;BME280;22354;50.012;8.264;2022-09-16T13:26:42;100046.22;;;17.66;100.00
36328;BME280;22354;50.012;8.264;2022-09-16T13:31:58;100031.56;;;18.20;100.00
36328;BME280;22354;50.012;8.264;2022-09-16T13:34:23;100033.13;;;18.54;100.00
36328;BME280;22354;50.012;8.264;2022-09-16T13:36:49;100034.19;;;18.98;100.00
36328;BME280;22354;50.012;8.264;2022-09-16T13:39:31;100026.69;;;19.25;100.00
36328;BME280;22354;50.012;8.264;2022-09-16T13:42:08;100017.91;;;18.98;100.00
36328;BME280;22354;50.012;8.264;2022-09-16T13:47:13;100011.84;;;18.96;100.00
36328;BME280;22354;50.012;8.264;2022-09-16T13:49:58;100020.34;;;19.37;100.00
36328;BME280;22354;50.012;8.264;2022-09-16T13:52:30;100022.00;;;19.38;100.00
36328;BME280;22354;50.012;8.264;2022-09-16T13:54:58;100031.50;;;19.54;100.00
36328;BME280;22354;50.012;8.264;2022-09-16T13:57:35;100033.03;;;19.19;100.00
36328;BME280;22354;50.012;8.264;2022-09-16T14:00:25;100038.00;;;18.90;100.00
36328;BME280;22354;50.012;8.264;2022-09-16T14:05:48;100040.00;;;18.63;100.00
36328;BME280;22354;50.012;8.264;2022-09-16T14:13:31;100036.84;;;18.02;100.00
36328;BME280;22354;50.012;8.264;2022-09-16T14:15:59;100046.84;;;17.81;100.00
36328;BME280;22354;50.012;8.264;2022-09-16T14:18:28;100043.94;;;17.50;100.00
36328;BME280;22354;50.012;8.264;2022-09-16T14:21:04;100048.69;;;17.28;100.00
36328;BME280;22354;50.012;8.264;2022-09-16T14:23:32;100044.28;;;17.00;100.00
36328;BME280;22354;50.012;8.264;2022-09-16T14:26:11;100043.91;;;17.23;100.00
36328;BME280;22354;50.012;8.264;2022-09-16T14:28:37;100041.03;;;17.78;100.00
36328;BME280;22354;50.012;8.264;2022-09-16T14:31:07;100045.19;;;17.34;100.00
36328;BME280;22354;50.012;8.264;2022-09-16T14:33:36;100039.75;;;17.40;100.00
36328;BME280;22354;50.012;8.264;2022-09-16T14:36:19;100036.00;;;16.61;100.00
36328;BME280;22354;50.012;8.264;2022-09-16T14:38:53;100025.88;;;16.76;100.00
36328;BME280;22354;50.012;8.264;2022-09-16T14:41:28;100032.47;;;17.34;100.00
36328;BME280;22354;50.012;8.264;2022-09-16T14:44:00;100029.25;;;16.91;100.00
36328;BME280;22354;50.012;8.264;2022-09-16T14:46:28;100027.88;;;16.61;100.00
36328;BME280;22354;50.012;8.264;2022-09-16T14:48:54;100028.72;;;16.61;100.00
36328;BME280;22354;50.012;8.264;2022-09-16T14:51:22;100032.03;;;16.57;100.00
36328;BME280;22354;50.012;8.264;2022-09-16T14:53:57;100038.09;;;16.65;100.00